Station MXXA2 - MXAK Office, AK Image indicating link to RSS feed of recent meteorological observations for station MXXA2


Conditions at MXXA2 as of
(11:32 pm AKDT on 06/14/2024)
0732 GMT on 06/15/2024:
     

Click on the graph icon in the table below to see a time series plot of the last five days of that observation.

5-day plot - Wind Direction Wind Direction (WDIR):WNW ( 300 deg true )
5-day plot - Wind Speed Wind Speed (WSPD): 3 kts
5-day plot - Wind Gust Wind Gust (GST): 5 kts
5-day plot - Air Temperature Air Temperature (ATMP): 47.8 °F
5-day plot - Dew Point Dew Point (DEWP): 46.4 °F
5-day plot - Wind Chill Wind Chill (CHILL): 46.9 °F
5-day plot - Wind Speed at 10 Meters Wind Speed at 10 meters (WSPD10M): 2 kts
5-day plot - Wind Speed at 20 Meters Wind Speed at 20 meters (WSPD20M): 4 kts
5-day plot -  Wind Speed, Wind Gust and Atmospheric Pressure Combined plot of Wind Speed, Gust, and Air Pressure
Previous observations
TIME
(AKDT)
5-day plot - Wind Direction
WDIR
 
5-day plot - Wind Speed
WSPD
kts
5-day plot - Wind Gust
GST
kts
5-day plot - Wave Height
WVHT
ft
5-day plot - Dominant Wave Period
DPD
sec
5-day plot - Average Wave Period
APD
sec
5-day plot - Mean Wave Direction
MWD
 
5-day plot - Atmospheric Pressure
PRES
in
5-day plot - Pressure Tendency
PTDY
in
5-day plot - Air Temperature
ATMP
°F
5-day plot - Water Temperature
WTMP
°F
5-day plot - Dew Point
DEWP
°F
5-day plot - Salinity
SAL
psu
5-day plot - Visibility
VIS
nmi
5-day plot - Tide (above MLLW)
TIDE
ft
2024-06-14 11:22 pm W 2 3------ 48.2- 46.8---
2024-06-14 11:13 pm W 1 3------ 48.6- 46.9---
2024-06-14 11:02 pm- 0 2------ 48.6- 46.8---
2024-06-14 10:52 pmWSW 1 2------ 49.1- 46.9---
2024-06-14 10:43 pm NW 1 3------ 49.5- 47.5---
2024-06-14 10:32 pmWNW 1 3------ 49.8- 47.7---
2024-06-14 10:22 pmWNW 2 4------ 50.2- 47.8---
2024-06-14 10:12 pmWNW 2 3------ 50.9- 48.2---
2024-06-14 10:02 pm W 1 3------ 51.8- 48.0---
2024-06-14 09:53 pm N 2 3------ 52.3- 48.2---
2024-06-14 09:42 pmNNE 2 4------ 52.7- 47.8---
2024-06-14 09:32 pmNNE 2 4------ 53.1- 48.9---
2024-06-14 09:23 pmNNE 3 5------ 53.6- 48.9---
2024-06-14 09:12 pmNNE 2 5------ 54.7- 49.6---
2024-06-14 09:02 pm NW 1 3------ 55.8- 49.5---
2024-06-14 08:52 pmWNW 2 5------ 55.2- 48.9---
2024-06-14 08:42 pm W 3 6------ 55.2- 48.7---
2024-06-14 08:32 pm W 4 8------ 54.5- 48.7---
2024-06-14 08:22 pm W 5 8------ 54.0- 48.6---
2024-06-14 08:12 pm W 5 8------ 54.0- 48.7---
2024-06-14 08:02 pm W 5 10------ 54.0- 48.7---
2024-06-14 07:52 pm W 6 10------ 53.8- 48.6---
2024-06-14 07:42 pm W 5 9------ 53.8- 48.6---
2024-06-14 07:32 pm W 6 9------ 53.8- 48.6---
2024-06-14 07:22 pm W 6 10------ 53.8- 48.2---
2024-06-14 07:12 pmWNW 6 12------ 54.0- 47.7---
2024-06-14 07:02 pm W 6 11------ 53.4- 48.2---
2024-06-14 06:52 pm W 7 12------ 53.6- 47.8---
2024-06-14 06:42 pm W 7 12------ 54.1- 47.1---
2024-06-14 06:32 pm W 8 13------ 54.5- 46.4---
2024-06-14 06:22 pmWNW 6 11------ 54.3- 47.5---
2024-06-14 06:12 pmWNW 6 12------ 54.1- 48.0---
2024-06-14 06:02 pm W 6 10------ 54.0- 48.4---
2024-06-14 05:52 pm W 6 13------ 54.3- 48.6---
2024-06-14 05:42 pmWNW 7 13------ 54.3- 48.4---
2024-06-14 05:33 pm W 6 12------ 54.3- 48.2---
2024-06-14 05:22 pm W 7 12------ 54.1- 48.2---
2024-06-14 05:12 pm W 6 11------ 54.3- 48.6---
2024-06-14 05:02 pm W 5 9------ 54.5- 48.7---
2024-06-14 04:52 pm W 5 11------ 54.3- 48.4---
2024-06-14 04:42 pmWNW 7 12------ 54.3- 48.2---
2024-06-14 04:32 pm W 4 9------ 55.0- 48.6---
2024-06-14 04:22 pm W 4 8------ 55.4- 49.1---
2024-06-14 04:12 pm W 5 7------ 55.4- 49.1---
2024-06-14 03:52 pm W 3 6------ 55.6- 47.3---
2024-06-14 03:42 pm W 4 7------ 55.2- 46.4---
2024-06-14 03:32 pm W 3 6------ 55.6- 46.8---
2024-06-14 03:22 pm W 3 6------ 55.0- 46.0---
2024-06-14 03:12 pm W 2 6------ 55.4- 46.0---
2024-06-14 03:06 pm SW 2 4------ 55.6- 46.2---
2024-06-14 03:02 pm SW 2 4------ 55.6- 46.2---
2024-06-14 02:52 pmSSW 2 4------ 55.8- 46.6---
2024-06-14 02:42 pmSSW 1 3------ 56.3- 46.9---
2024-06-14 02:32 pmWSW 1 3------ 56.5- 47.1---
2024-06-14 02:22 pmWSW 2 4------ 56.1- 48.7---
2024-06-14 02:12 pm W 2 4------ 55.2- 48.0---
2024-06-14 02:02 pmESE 1 3------ 54.3- 47.5---
2024-06-14 01:52 pm E 1 4------ 52.9- 47.3---
2024-06-14 01:42 pmESE 2 4------ 51.6- 46.6---
2024-06-14 01:32 pmESE 3 4------ 50.7- 46.0---
2024-06-14 01:22 pmESE 3 5------ 50.5- 46.0---
2024-06-14 01:13 pmESE 3 5------ 50.4- 45.5---
2024-06-14 01:02 pmESE 3 5------ 50.2- 45.9---
2024-06-14 12:52 pmESE 4 6------ 49.8- 45.3---
2024-06-14 12:42 pmESE 5 7------ 50.0- 45.1---
2024-06-14 12:32 pmESE 4 6------ 50.0- 45.5---
2024-06-14 12:22 pmESE 4 6------ 49.6- 45.1---
2024-06-14 12:12 pmESE 4 6------ 49.3- 45.1---
2024-06-14 12:02 pmESE 4 7------ 49.1- 45.1---
2024-06-14 11:52 amESE 4 7------ 49.3- 45.0---
2024-06-14 11:42 amESE 5 7------ 49.1- 45.0---
2024-06-14 11:33 amESE 6 8------ 48.6- 44.6---
2024-06-14 11:22 amESE 5 7------ 48.6- 44.6---
2024-06-14 11:17 amESE 4 7------ 48.6- 45.0---
2024-06-14 11:16 amESE 4 7------ 48.6- 45.0---
2024-06-14 11:13 amESE 4 7------ 48.6- 45.0---
2024-06-14 11:02 amESE 5 6------ 48.2- 44.8---
2024-06-14 10:52 amESE 5 6------ 48.0- 44.8---
2024-06-14 10:42 amESE 4 6------ 47.8- 45.0---
2024-06-14 10:32 amESE 4 6------ 47.5- 44.6---
2024-06-14 10:22 amESE 5 7------ 47.3- 44.2---
2024-06-14 10:12 amESE 5 7------ 47.1- 44.6---
2024-06-14 10:02 amESE 6 8------ 47.1- 44.6---
2024-06-14 09:52 amESE 6 8------ 47.3- 44.8---
2024-06-14 09:42 amESE 5 7------ 47.3- 45.0---
2024-06-14 09:32 amESE 5 7------ 47.1- 45.1---
2024-06-14 09:22 amESE 5 8------ 47.1- 45.3---
2024-06-14 09:12 amESE 4 7------ 47.1- 45.1---
2024-06-14 09:02 amESE 4 6------ 47.1- 45.0---
2024-06-14 08:52 amESE 4 7------ 47.1- 45.3---
2024-06-14 08:42 am E 4 5------ 47.3- 45.5---
2024-06-14 08:33 amESE 4 6------ 47.3- 45.3---
2024-06-14 08:23 am E 4 7------ 47.3- 45.5---
2024-06-14 08:12 am E 3 5------ 47.3- 45.5---
2024-06-14 08:02 am E 3 5------ 47.3- 45.1---
2024-06-14 07:52 am E 3 6------ 47.1- 44.8---
2024-06-14 07:42 amESE 4 6------ 46.9- 45.0---
2024-06-14 07:32 am E 5 7------ 46.8- 44.8---
2024-06-14 07:22 am E 5 7------ 46.8- 45.0---
2024-06-14 07:12 am E 5 8------ 46.8- 45.1---
2024-06-14 07:03 am E 5 9------ 46.8- 45.1---
2024-06-14 06:52 am E 5 8------ 46.8- 45.3---
2024-06-14 06:42 am E 4 7------ 46.9- 45.7---
2024-06-14 06:32 amESE 5 9------ 46.9- 45.5---
2024-06-14 06:22 amESE 6 8------ 46.8- 45.5---
2024-06-14 06:12 amESE 5 7------ 46.9- 45.9---
2024-06-14 06:02 am E 4 7------ 46.9- 45.7---
2024-06-14 05:52 am E 5 8------ 46.9- 45.5---
2024-06-14 05:42 am E 5 8------ 46.9- 45.5---
2024-06-14 05:32 am E 5 8------ 47.1- 45.7---
2024-06-14 05:22 am E 4 8------ 47.3- 45.9---
2024-06-14 05:12 am E 3 6------ 47.3- 46.2---
2024-06-14 05:02 amESE 4 6------ 47.5- 46.8---
2024-06-14 04:52 amESE 4 6------ 47.5- 46.8---
2024-06-14 04:42 amESE 5 8------ 47.7- 46.8---
2024-06-14 04:33 am E 3 7------ 47.8- 46.9---
2024-06-14 04:22 am E 4 6------ 48.0- 47.5---
2024-06-14 04:12 am E 4 7------ 48.0- 47.1---
2024-06-14 04:02 amENE 4 8------ 47.8- 46.9---
2024-06-14 03:52 am E 5 8------ 48.0- 47.1---
2024-06-14 03:42 am E 5 7------ 48.2- 47.3---
2024-06-14 03:32 am E 4 6------ 48.2- 47.3---
2024-06-14 03:12 amENE 3 5------ 47.8- 46.8---
2024-06-14 03:02 amENE 4 5------ 47.8- 46.8---
2024-06-14 02:52 amENE 3 6------ 48.0- 46.9---
2024-06-14 02:42 amENE 3 5------ 48.2- 47.1---
2024-06-14 02:32 amENE 4 5------ 48.2- 47.1---
2024-06-14 02:22 amENE 3 5------ 48.2- 47.1---
2024-06-14 02:12 amENE 3 5------ 48.4- 46.9---
2024-06-14 02:02 am E 3 5------ 48.6- 47.1---
2024-06-14 01:52 am E 3 4------ 48.6- 46.9---
2024-06-14 01:42 amENE 4 7------ 48.4- 46.6---
2024-06-14 01:32 amENE 3 5------ 48.6- 46.6---
2024-06-14 01:12 amENE 3 5------ 48.7- 46.6---
2024-06-14 01:02 amENE 3 5------ 49.1- 46.6---
2024-06-14 12:52 am E 2 5------ 49.3- 46.4---
2024-06-14 12:42 amENE 3 5------ 49.5- 46.6---
2024-06-14 12:32 amENE 3 7------ 49.6- 46.4---
2024-06-14 12:22 amENE 3 6------ 49.8- 46.6---
2024-06-14 12:13 am NE 2 3------ 50.2- 46.6---
2024-06-14 12:02 amENE 2 4------ 50.2- 46.8---
2024-06-13 11:52 pm NE 3 5------ 50.5- 46.6---
2024-06-13 11:42 pm NE 2 4------ 50.9- 46.6---
2024-06-13 11:22 pm NE 4 7------ 51.3- 46.2---
2024-06-13 11:13 pmNNE 4 7------ 51.6- 46.0---
2024-06-13 11:02 pm NE 5 8------ 52.5- 45.1---
2024-06-13 10:52 pm NE 4 8------ 54.0- 44.1---